Maria — SV7156 — position and weather

sailwx.info

Track history (hours):
 
Tides and Currents Weather Stations Pressure Air Temp Water Temp Dewpoint Dewpoint Depression Visibility Wind Speed Wind Dir Waves Ship Positions

Maria

Last reported at 2015-Mar-03 19:03 UTC. Time now 2015-Mar-04 02:48 UTC.
Position N 37°58' E 023°35'.

Length 74 m; draft 4.5 m.

Type: Ship. MMSI: 237493000.

Date/timePositionNaut miles runAvg speedWind from/ knotsBaromVisibWave heightAir tempDewpointWater temp
2015-Mar-03 19:03N 37°58' E 023°35'2 4.1
2015-Mar-03 18:33N 37°56' E 023°34'1 0.8
2015-Mar-03 17:33N 37°55' E 023°34'0 0.0
2015-Mar-03 16:33N 37°55' E 023°34'0 0.0
2015-Mar-03 15:33N 37°55' E 023°34'2 2.4
2015-Mar-03 14:33N 37°57' E 023°35'1 0.0
2015-Mar-02 23:13N 37°58' E 023°35'2 2.3
2015-Mar-02 22:33N 37°57' E 023°36'0 0.0
2015-Mar-02 21:33N 37°57' E 023°36'0 0.0
2015-Mar-02 20:33N 37°57' E 023°36'0 0.0
2015-Mar-02 19:33N 37°57' E 023°36'2 0.5
2015-Mar-02 16:27N 37°58' E 023°35'6 6.8
2015-Mar-02 15:33N 37°52' E 023°31'0 0.3
2015-Mar-02 14:31N 37°53' E 023°30'0 0.1
2015-Mar-02 13:33N 37°53' E 023°30'0 0.1
2015-Mar-02 12:33N 37°52' E 023°31'0 0.1
2015-Mar-02 11:33N 37°53' E 023°30'2 1.9
2015-Mar-02 10:33N 37°53' E 023°33'1 1.5
2015-Mar-02 09:33N 37°54' E 023°34'0 0.1
2015-Mar-02 08:33N 37°54' E 023°34'0 0.0
2015-Mar-02 07:33N 37°54' E 023°34'3 3.0
2015-Mar-02 06:33N 37°57' E 023°35'0 0.0
2015-Feb-28 05:33N 37°57' E 023°34'4 4.4
2015-Feb-28 04:33N 38°02' E 023°36'0 0.0
2015-Feb-27 23:16N 38°02' E 023°36'0 0.3
2015-Feb-27 22:33N 38°02' E 023°35'8 8.0
2015-Feb-27 21:33N 37°60' E 023°26'7 6.6
2015-Feb-27 20:33N 37°53' E 023°24'7 7.3
2015-Feb-27 19:33N 37°54' E 023°33'4 3.8
2015-Feb-27 18:33N 37°57' E 023°36'0 0.0
2015-Feb-27 17:33N 37°57' E 023°36'0 0.5
2015-Feb-27 16:33N 37°57' E 023°36'5 5.1
2015-Feb-27 15:33N 38°02' E 023°33'0 0.0
2015-Feb-27 14:06N 38°02' E 023°33'0 0.0
2015-Feb-27 13:33N 38°02' E 023°33'0 0.0
2015-Feb-27 12:33N 38°02' E 023°33'0 0.2
2015-Feb-27 11:33N 38°02' E 023°32'1 1.2
2015-Feb-27 10:33N 38°02' E 023°34'1 0.8
2015-Feb-27 09:32N 38°02' E 023°35'4 4.5
2015-Feb-27 08:33N 37°58' E 023°33'1 0.1
2015-Feb-26 14:19N 37°58' E 023°35'3 3.4
2015-Feb-26 13:33N 37°55' E 023°34'0 0.1
2015-Feb-26 12:33N 37°55' E 023°34'0 0.1
2015-Feb-26 11:33N 37°55' E 023°34'2 1.6
2015-Feb-26 10:33N 37°57' E 023°35'1 0.1
2015-Feb-25 22:33N 37°57' E 023°35'6 6.0
2015-Feb-25 21:33N 37°52' E 023°31'0 0.1
2015-Feb-25 20:33N 37°52' E 023°31'0 0.1
2015-Feb-25 19:33N 37°52' E 023°31'0 0.1
2015-Feb-25 18:34N 37°52' E 023°31'0 0.1
2015-Feb-25 17:34N 37°52' E 023°31'0 0.4
2015-Feb-25 16:34N 37°53' E 023°31'5 5.3
2015-Feb-25 15:33N 37°58' E 023°33'4 3.9
2015-Feb-25 14:23N 38°02' E 023°36'0 0.0
2015-Feb-25 13:23N 38°02' E 023°36'0 0.0
2015-Feb-25 11:33N 38°02' E 023°36'1 0.9
2015-Feb-25 10:33N 38°01' E 023°35'0 0.0
2015-Feb-25 09:33N 38°01' E 023°35'0 0.0
2015-Feb-25 08:33N 38°01' E 023°35'0 0.0
2015-Feb-25 07:32N 38°01' E 023°35'0 0.1
2015-Feb-25 06:33N 38°01' E 023°35'0 0.0
2015-Feb-25 05:31N 38°01' E 023°35'0 0.0
2015-Feb-25 04:33N 38°01' E 023°35'0 0.0
2015-Feb-25 03:29N 38°01' E 023°35'0 0.0
2015-Feb-25 02:27N 38°01' E 023°35'0 0.0
2015-Feb-25 01:33N 38°01' E 023°35'0 0.0
2015-Feb-25 00:33N 38°01' E 023°35'0 0.0
2015-Feb-24 23:33N 38°01' E 023°35'0 0.0
2015-Feb-24 22:33N 38°01' E 023°35'0 0.0
2015-Feb-24 21:33N 38°01' E 023°35'0 0.0
2015-Feb-24 20:33N 38°01' E 023°35'0 0.0
2015-Feb-24 19:32N 38°01' E 023°35'0 0.0
2015-Feb-24 18:33N 38°01' E 023°35'0 0.0
2015-Feb-24 17:33N 38°01' E 023°35'4 3.7
2015-Feb-24 16:33N 37°58' E 023°33'  
2015-Feb-21 22:15N 37°58' E 023°35'1 0.8
2015-Feb-21 21:34N 37°57' E 023°35'0 0.0
2015-Feb-21 20:33N 37°57' E 023°35'0 0.0
2015-Feb-21 19:34N 37°57' E 023°35'  
Track history (hours):
 
Tides and Currents Weather Stations Pressure Air Temp Water Temp Dewpoint Dewpoint Depression Visibility Wind Speed Wind Dir Waves Ship Positions

Maria

Last reported at 2015-Mar-03 19:03 UTC. Time now 2015-Mar-04 02:48 UTC.
Position N 37°58' E 023°35'.

Length 74 m; draft 4.5 m.

Type: Ship. MMSI: 237493000.

Date/timePositionNaut miles runAvg speedWind from/ knotsBaromVisibWave heightAir tempDewpointWater temp
2015-Mar-03 19:03N 37°58' E 023°35'2 4.1
2015-Mar-03 18:33N 37°56' E 023°34'1 0.8
2015-Mar-03 17:33N 37°55' E 023°34'0 0.0
2015-Mar-03 16:33N 37°55' E 023°34'0 0.0
2015-Mar-03 15:33N 37°55' E 023°34'2 2.4
2015-Mar-03 14:33N 37°57' E 023°35'1 0.0
2015-Mar-02 23:13N 37°58' E 023°35'2 2.3
2015-Mar-02 22:33N 37°57' E 023°36'0 0.0
2015-Mar-02 21:33N 37°57' E 023°36'0 0.0
2015-Mar-02 20:33N 37°57' E 023°36'0 0.0
2015-Mar-02 19:33N 37°57' E 023°36'2 0.5
2015-Mar-02 16:27N 37°58' E 023°35'6 6.8
2015-Mar-02 15:33N 37°52' E 023°31'0 0.3
2015-Mar-02 14:31N 37°53' E 023°30'0 0.1
2015-Mar-02 13:33N 37°53' E 023°30'0 0.1
2015-Mar-02 12:33N 37°52' E 023°31'0 0.1
2015-Mar-02 11:33N 37°53' E 023°30'2 1.9
2015-Mar-02 10:33N 37°53' E 023°33'1 1.5
2015-Mar-02 09:33N 37°54' E 023°34'0 0.1
2015-Mar-02 08:33N 37°54' E 023°34'0 0.0
2015-Mar-02 07:33N 37°54' E 023°34'3 3.0
2015-Mar-02 06:33N 37°57' E 023°35'0 0.0
2015-Feb-28 05:33N 37°57' E 023°34'4 4.4
2015-Feb-28 04:33N 38°02' E 023°36'0 0.0
2015-Feb-27 23:16N 38°02' E 023°36'0 0.3
2015-Feb-27 22:33N 38°02' E 023°35'8 8.0
2015-Feb-27 21:33N 37°60' E 023°26'7 6.6
2015-Feb-27 20:33N 37°53' E 023°24'7 7.3
2015-Feb-27 19:33N 37°54' E 023°33'4 3.8
2015-Feb-27 18:33N 37°57' E 023°36'0 0.0
2015-Feb-27 17:33N 37°57' E 023°36'0 0.5
2015-Feb-27 16:33N 37°57' E 023°36'5 5.1
2015-Feb-27 15:33N 38°02' E 023°33'0 0.0
2015-Feb-27 14:06N 38°02' E 023°33'0 0.0
2015-Feb-27 13:33N 38°02' E 023°33'0 0.0
2015-Feb-27 12:33N 38°02' E 023°33'0 0.2
2015-Feb-27 11:33N 38°02' E 023°32'1 1.2
2015-Feb-27 10:33N 38°02' E 023°34'1 0.8
2015-Feb-27 09:32N 38°02' E 023°35'4 4.5
2015-Feb-27 08:33N 37°58' E 023°33'1 0.1
2015-Feb-26 14:19N 37°58' E 023°35'3 3.4
2015-Feb-26 13:33N 37°55' E 023°34'0 0.1
2015-Feb-26 12:33N 37°55' E 023°34'0 0.1
2015-Feb-26 11:33N 37°55' E 023°34'2 1.6
2015-Feb-26 10:33N 37°57' E 023°35'1 0.1
2015-Feb-25 22:33N 37°57' E 023°35'6 6.0
2015-Feb-25 21:33N 37°52' E 023°31'0 0.1
2015-Feb-25 20:33N 37°52' E 023°31'0 0.1
2015-Feb-25 19:33N 37°52' E 023°31'0 0.1
2015-Feb-25 18:34N 37°52' E 023°31'0 0.1
2015-Feb-25 17:34N 37°52' E 023°31'0 0.4
2015-Feb-25 16:34N 37°53' E 023°31'5 5.3
2015-Feb-25 15:33N 37°58' E 023°33'4 3.9
2015-Feb-25 14:23N 38°02' E 023°36'0 0.0
2015-Feb-25 13:23N 38°02' E 023°36'0 0.0
2015-Feb-25 11:33N 38°02' E 023°36'1 0.9
2015-Feb-25 10:33N 38°01' E 023°35'0 0.0
2015-Feb-25 09:33N 38°01' E 023°35'0 0.0
2015-Feb-25 08:33N 38°01' E 023°35'0 0.0
2015-Feb-25 07:32N 38°01' E 023°35'0 0.1
2015-Feb-25 06:33N 38°01' E 023°35'0 0.0
2015-Feb-25 05:31N 38°01' E 023°35'0 0.0
2015-Feb-25 04:33N 38°01' E 023°35'0 0.0
2015-Feb-25 03:29N 38°01' E 023°35'0 0.0
2015-Feb-25 02:27N 38°01' E 023°35'0 0.0
2015-Feb-25 01:33N 38°01' E 023°35'0 0.0
2015-Feb-25 00:33N 38°01' E 023°35'0 0.0
2015-Feb-24 23:33N 38°01' E 023°35'0 0.0
2015-Feb-24 22:33N 38°01' E 023°35'0 0.0
2015-Feb-24 21:33N 38°01' E 023°35'0 0.0
2015-Feb-24 20:33N 38°01' E 023°35'0 0.0
2015-Feb-24 19:32N 38°01' E 023°35'0 0.0
2015-Feb-24 18:33N 38°01' E 023°35'0 0.0
2015-Feb-24 17:33N 38°01' E 023°35'4 3.7
2015-Feb-24 16:33N 37°58' E 023°33'  
2015-Feb-21 22:15N 37°58' E 023°35'1 0.8
2015-Feb-21 21:34N 37°57' E 023°35'0 0.0
2015-Feb-21 20:33N 37°57' E 023°35'0 0.0
2015-Feb-21 19:34N 37°57' E 023°35'  

Dump ship's entire track history